sensor_id;sensor_type;location;lat;lon;timestamp;P1;durP1;ratioP1;P2;durP2;ratioP2
20689;SDS011;10504;48.762;8.996;2023-12-20T00:00:56;1.00;;;1.00;;
20689;SDS011;10504;48.762;8.996;2023-12-20T00:03:22;1.00;;;1.00;;
20689;SDS011;10504;48.762;8.996;2023-12-20T00:05:49;0.90;;;0.90;;
20689;SDS011;10504;48.762;8.996;2023-12-20T00:08:14;1.10;;;1.10;;
20689;SDS011;10504;48.762;8.996;2023-12-20T00:10:40;1.20;;;1.10;;
20689;SDS011;10504;48.762;8.996;2023-12-20T00:13:06;1.33;;;1.10;;
20689;SDS011;10504;48.762;8.996;2023-12-20T00:15:32;0.70;;;0.70;;
20689;SDS011;10504;48.762;8.996;2023-12-20T00:17:58;1.07;;;1.07;;
20689;SDS011;10504;48.762;8.996;2023-12-20T00:20:24;0.90;;;0.90;;
20689;SDS011;10504;48.762;8.996;2023-12-20T00:22:50;0.80;;;0.80;;
20689;SDS011;10504;48.762;8.996;2023-12-20T00:25:15;2.67;;;1.10;;
20689;SDS011;10504;48.762;8.996;2023-12-20T00:27:41;0.80;;;0.80;;
20689;SDS011;10504;48.762;8.996;2023-12-20T00:30:07;0.80;;;0.80;;
20689;SDS011;10504;48.762;8.996;2023-12-20T00:32:34;0.97;;;0.97;;
20689;SDS011;10504;48.762;8.996;2023-12-20T00:35:00;1.23;;;1.23;;
20689;SDS011;10504;48.762;8.996;2023-12-20T00:37:26;0.80;;;0.80;;
20689;SDS011;10504;48.762;8.996;2023-12-20T00:39:52;1.03;;;1.03;;
20689;SDS011;10504;48.762;8.996;2023-12-20T00:42:17;0.87;;;0.87;;
20689;SDS011;10504;48.762;8.996;2023-12-20T00:44:43;1.00;;;1.00;;
20689;SDS011;10504;48.762;8.996;2023-12-20T00:47:08;0.90;;;0.90;;
20689;SDS011;10504;48.762;8.996;2023-12-20T00:49:34;1.03;;;1.03;;
20689;SDS011;10504;48.762;8.996;2023-12-20T00:51:59;1.00;;;1.00;;
20689;SDS011;10504;48.762;8.996;2023-12-20T00:54:25;0.90;;;0.90;;
20689;SDS011;10504;48.762;8.996;2023-12-20T00:56:51;0.90;;;0.90;;
20689;SDS011;10504;48.762;8.996;2023-12-20T00:59:16;1.10;;;1.10;;
20689;SDS011;10504;48.762;8.996;2023-12-20T01:01:43;1.40;;;1.30;;
20689;SDS011;10504;48.762;8.996;2023-12-20T01:04:08;1.20;;;1.20;;
20689;SDS011;10504;48.762;8.996;2023-12-20T01:06:34;1.10;;;1.10;;
20689;SDS011;10504;48.762;8.996;2023-12-20T01:08:59;1.30;;;1.30;;
20689;SDS011;10504;48.762;8.996;2023-12-20T01:11:25;1.47;;;1.37;;
20689;SDS011;10504;48.762;8.996;2023-12-20T01:13:50;1.20;;;1.20;;
20689;SDS011;10504;48.762;8.996;2023-12-20T01:16:16;1.30;;;1.30;;
20689;SDS011;10504;48.762;8.996;2023-12-20T01:18:42;1.30;;;1.30;;
20689;SDS011;10504;48.762;8.996;2023-12-20T01:21:07;1.30;;;1.30;;
20689;SDS011;10504;48.762;8.996;2023-12-20T01:23:33;1.30;;;1.30;;
20689;SDS011;10504;48.762;8.996;2023-12-20T01:25:58;1.30;;;1.30;;
20689;SDS011;10504;48.762;8.996;2023-12-20T01:28:27;1.40;;;1.40;;
20689;SDS011;10504;48.762;8.996;2023-12-20T01:30:53;1.30;;;1.30;;
20689;SDS011;10504;48.762;8.996;2023-12-20T01:33:19;1.30;;;1.30;;
20689;SDS011;10504;48.762;8.996;2023-12-20T01:35:44;1.40;;;1.40;;
20689;SDS011;10504;48.762;8.996;2023-12-20T01:38:10;1.50;;;1.50;;
20689;SDS011;10504;48.762;8.996;2023-12-20T01:40:35;1.40;;;1.40;;
20689;SDS011;10504;48.762;8.996;2023-12-20T01:43:02;1.50;;;1.50;;
20689;SDS011;10504;48.762;8.996;2023-12-20T01:45:32;1.40;;;1.40;;
20689;SDS011;10504;48.762;8.996;2023-12-20T01:47:58;1.60;;;1.60;;
20689;SDS011;10504;48.762;8.996;2023-12-20T01:50:24;1.50;;;1.50;;
20689;SDS011;10504;48.762;8.996;2023-12-20T01:52:51;1.53;;;1.53;;
20689;SDS011;10504;48.762;8.996;2023-12-20T01:55:20;1.50;;;1.50;;
20689;SDS011;10504;48.762;8.996;2023-12-20T01:57:47;1.60;;;1.60;;
20689;SDS011;10504;48.762;8.996;2023-12-20T02:00:12;1.60;;;1.60;;
20689;SDS011;10504;48.762;8.996;2023-12-20T02:02:40;1.67;;;1.63;;
20689;SDS011;10504;48.762;8.996;2023-12-20T02:05:06;1.60;;;1.60;;
20689;SDS011;10504;48.762;8.996;2023-12-20T02:07:32;1.60;;;1.60;;
20689;SDS011;10504;48.762;8.996;2023-12-20T02:09:59;1.60;;;1.60;;
20689;SDS011;10504;48.762;8.996;2023-12-20T02:12:25;1.93;;;1.83;;
20689;SDS011;10504;48.762;8.996;2023-12-20T02:14:51;1.80;;;1.70;;
20689;SDS011;10504;48.762;8.996;2023-12-20T02:17:17;1.80;;;1.70;;
20689;SDS011;10504;48.762;8.996;2023-12-20T02:19:43;1.80;;;1.70;;
20689;SDS011;10504;48.762;8.996;2023-12-20T02:22:12;1.80;;;1.70;;
20689;SDS011;10504;48.762;8.996;2023-12-20T02:24:38;1.60;;;1.60;;
20689;SDS011;10504;48.762;8.996;2023-12-20T02:27:05;1.90;;;1.80;;
20689;SDS011;10504;48.762;8.996;2023-12-20T02:29:32;1.83;;;1.73;;
20689;SDS011;10504;48.762;8.996;2023-12-20T02:31:58;1.80;;;1.70;;
20689;SDS011;10504;48.762;8.996;2023-12-20T02:34:24;1.90;;;1.80;;
20689;SDS011;10504;48.762;8.996;2023-12-20T02:36:49;1.80;;;1.70;;
20689;SDS011;10504;48.762;8.996;2023-12-20T02:39:16;1.60;;;1.60;;
20689;SDS011;10504;48.762;8.996;2023-12-20T02:41:42;1.80;;;1.70;;
20689;SDS011;10504;48.762;8.996;2023-12-20T02:44:07;1.83;;;1.73;;
20689;SDS011;10504;48.762;8.996;2023-12-20T02:46:33;1.90;;;1.80;;
20689;SDS011;10504;48.762;8.996;2023-12-20T02:48:59;1.97;;;1.87;;
20689;SDS011;10504;48.762;8.996;2023-12-20T02:51:24;2.00;;;1.90;;
20689;SDS011;10504;48.762;8.996;2023-12-20T02:53:50;2.20;;;2.10;;
20689;SDS011;10504;48.762;8.996;2023-12-20T02:56:16;2.20;;;2.10;;
20689;SDS011;10504;48.762;8.996;2023-12-20T02:58:41;2.30;;;2.20;;
20689;SDS011;10504;48.762;8.996;2023-12-20T03:01:07;2.00;;;1.90;;
20689;SDS011;10504;48.762;8.996;2023-12-20T03:03:33;2.10;;;2.00;;
20689;SDS011;10504;48.762;8.996;2023-12-20T03:05:58;2.87;;;2.67;;
20689;SDS011;10504;48.762;8.996;2023-12-20T03:08:25;2.50;;;2.33;;
20689;SDS011;10504;48.762;8.996;2023-12-20T03:10:50;2.20;;;2.10;;
20689;SDS011;10504;48.762;8.996;2023-12-20T03:13:16;3.33;;;3.03;;
20689;SDS011;10504;48.762;8.996;2023-12-20T03:15:42;2.40;;;2.30;;
20689;SDS011;10504;48.762;8.996;2023-12-20T03:18:07;2.20;;;2.10;;
20689;SDS011;10504;48.762;8.996;2023-12-20T03:20:33;2.20;;;2.10;;
20689;SDS011;10504;48.762;8.996;2023-12-20T03:22:59;2.20;;;2.10;;
20689;SDS011;10504;48.762;8.996;2023-12-20T03:25:25;2.73;;;2.63;;
20689;SDS011;10504;48.762;8.996;2023-12-20T03:27:52;2.53;;;2.43;;
20689;SDS011;10504;48.762;8.996;2023-12-20T03:30:18;2.63;;;2.53;;
20689;SDS011;10504;48.762;8.996;2023-12-20T03:32:44;3.03;;;2.83;;
20689;SDS011;10504;48.762;8.996;2023-12-20T03:35:10;2.60;;;2.50;;
20689;SDS011;10504;48.762;8.996;2023-12-20T03:37:36;2.50;;;2.40;;
20689;SDS011;10504;48.762;8.996;2023-12-20T03:40:02;2.50;;;2.40;;
20689;SDS011;10504;48.762;8.996;2023-12-20T03:42:28;2.33;;;2.23;;
20689;SDS011;10504;48.762;8.996;2023-12-20T03:44:53;2.30;;;2.20;;
20689;SDS011;10504;48.762;8.996;2023-12-20T03:47:19;2.50;;;2.40;;
20689;SDS011;10504;48.762;8.996;2023-12-20T03:49:45;2.50;;;2.40;;
20689;SDS011;10504;48.762;8.996;2023-12-20T03:52:10;2.40;;;2.30;;
20689;SDS011;10504;48.762;8.996;2023-12-20T03:54:36;2.40;;;2.30;;
20689;SDS011;10504;48.762;8.996;2023-12-20T03:57:02;2.60;;;2.50;;
20689;SDS011;10504;48.762;8.996;2023-12-20T03:59:28;2.50;;;2.40;;
20689;SDS011;10504;48.762;8.996;2023-12-20T04:01:54;2.60;;;2.50;;
20689;SDS011;10504;48.762;8.996;2023-12-20T04:04:20;2.50;;;2.40;;
20689;SDS011;10504;48.762;8.996;2023-12-20T04:06:45;2.50;;;2.40;;
20689;SDS011;10504;48.762;8.996;2023-12-20T04:09:11;2.63;;;2.53;;
20689;SDS011;10504;48.762;8.996;2023-12-20T04:11:37;2.50;;;2.40;;
20689;SDS011;10504;48.762;8.996;2023-12-20T04:14:02;2.70;;;2.60;;
20689;SDS011;10504;48.762;8.996;2023-12-20T04:16:30;2.70;;;2.60;;
20689;SDS011;10504;48.762;8.996;2023-12-20T04:18:55;2.70;;;2.60;;
20689;SDS011;10504;48.762;8.996;2023-12-20T04:21:21;2.77;;;2.67;;
20689;SDS011;10504;48.762;8.996;2023-12-20T04:23:46;3.30;;;3.10;;
20689;SDS011;10504;48.762;8.996;2023-12-20T04:26:12;2.90;;;2.80;;
20689;SDS011;10504;48.762;8.996;2023-12-20T04:28:38;2.60;;;2.50;;
20689;SDS011;10504;48.762;8.996;2023-12-20T04:31:03;2.73;;;2.63;;
20689;SDS011;10504;48.762;8.996;2023-12-20T04:33:29;2.70;;;2.60;;
20689;SDS011;10504;48.762;8.996;2023-12-20T04:35:54;2.60;;;2.50;;
20689;SDS011;10504;48.762;8.996;2023-12-20T04:38:20;3.00;;;2.90;;
20689;SDS011;10504;48.762;8.996;2023-12-20T04:40:46;2.97;;;2.87;;
20689;SDS011;10504;48.762;8.996;2023-12-20T04:43:12;2.90;;;2.80;;
20689;SDS011;10504;48.762;8.996;2023-12-20T04:45:38;2.80;;;2.70;;
20689;SDS011;10504;48.762;8.996;2023-12-20T04:48:04;2.90;;;2.80;;
20689;SDS011;10504;48.762;8.996;2023-12-20T04:50:30;2.60;;;2.50;;
20689;SDS011;10504;48.762;8.996;2023-12-20T04:52:55;2.60;;;2.50;;
20689;SDS011;10504;48.762;8.996;2023-12-20T04:55:21;2.70;;;2.60;;
20689;SDS011;10504;48.762;8.996;2023-12-20T04:57:46;2.80;;;2.70;;
20689;SDS011;10504;48.762;8.996;2023-12-20T05:00:12;2.70;;;2.60;;
20689;SDS011;10504;48.762;8.996;2023-12-20T05:02:40;2.70;;;2.60;;
20689;SDS011;10504;48.762;8.996;2023-12-20T05:05:06;2.90;;;2.80;;
20689;SDS011;10504;48.762;8.996;2023-12-20T05:07:32;2.70;;;2.60;;
20689;SDS011;10504;48.762;8.996;2023-12-20T05:09:58;3.20;;;3.00;;
20689;SDS011;10504;48.762;8.996;2023-12-20T05:12:24;2.90;;;2.80;;
20689;SDS011;10504;48.762;8.996;2023-12-20T05:14:50;2.80;;;2.70;;
20689;SDS011;10504;48.762;8.996;2023-12-20T05:17:17;2.80;;;2.70;;
20689;SDS011;10504;48.762;8.996;2023-12-20T05:19:43;3.10;;;2.90;;
20689;SDS011;10504;48.762;8.996;2023-12-20T05:22:08;3.00;;;2.90;;
20689;SDS011;10504;48.762;8.996;2023-12-20T05:24:34;2.80;;;2.70;;
20689;SDS011;10504;48.762;8.996;2023-12-20T05:27:00;2.80;;;2.70;;
20689;SDS011;10504;48.762;8.996;2023-12-20T05:29:26;2.70;;;2.60;;
20689;SDS011;10504;48.762;8.996;2023-12-20T05:31:51;2.90;;;2.80;;
20689;SDS011;10504;48.762;8.996;2023-12-20T05:34:17;2.90;;;2.80;;
20689;SDS011;10504;48.762;8.996;2023-12-20T05:36:42;2.90;;;2.80;;
20689;SDS011;10504;48.762;8.996;2023-12-20T05:39:08;2.90;;;2.80;;
20689;SDS011;10504;48.762;8.996;2023-12-20T05:41:34;2.90;;;2.80;;
20689;SDS011;10504;48.762;8.996;2023-12-20T05:43:59;3.40;;;3.20;;
20689;SDS011;10504;48.762;8.996;2023-12-20T05:46:25;3.00;;;2.90;;
20689;SDS011;10504;48.762;8.996;2023-12-20T05:48:51;2.90;;;2.80;;
20689;SDS011;10504;48.762;8.996;2023-12-20T05:51:17;3.20;;;3.00;;
20689;SDS011;10504;48.762;8.996;2023-12-20T05:53:43;3.30;;;3.10;;
20689;SDS011;10504;48.762;8.996;2023-12-20T05:56:10;3.60;;;3.40;;
20689;SDS011;10504;48.762;8.996;2023-12-20T05:58:36;3.60;;;3.40;;
20689;SDS011;10504;48.762;8.996;2023-12-20T06:01:05;3.67;;;3.47;;
20689;SDS011;10504;48.762;8.996;2023-12-20T06:03:31;3.40;;;3.20;;
20689;SDS011;10504;48.762;8.996;2023-12-20T06:05:56;3.73;;;3.53;;
20689;SDS011;10504;48.762;8.996;2023-12-20T06:08:22;3.43;;;3.23;;
20689;SDS011;10504;48.762;8.996;2023-12-20T06:10:48;3.70;;;3.50;;
20689;SDS011;10504;48.762;8.996;2023-12-20T06:13:14;3.53;;;3.33;;
20689;SDS011;10504;48.762;8.996;2023-12-20T06:15:40;3.70;;;3.50;;
20689;SDS011;10504;48.762;8.996;2023-12-20T06:18:05;3.80;;;3.60;;
20689;SDS011;10504;48.762;8.996;2023-12-20T06:20:32;3.80;;;3.60;;
20689;SDS011;10504;48.762;8.996;2023-12-20T06:22:57;3.80;;;3.60;;
20689;SDS011;10504;48.762;8.996;2023-12-20T06:25:23;3.80;;;3.60;;
20689;SDS011;10504;48.762;8.996;2023-12-20T06:27:49;3.70;;;3.50;;
20689;SDS011;10504;48.762;8.996;2023-12-20T06:30:15;4.10;;;3.90;;
20689;SDS011;10504;48.762;8.996;2023-12-20T06:32:41;3.90;;;3.70;;
20689;SDS011;10504;48.762;8.996;2023-12-20T06:35:08;3.80;;;3.60;;
20689;SDS011;10504;48.762;8.996;2023-12-20T06:37:33;3.97;;;3.77;;
20689;SDS011;10504;48.762;8.996;2023-12-20T06:39:59;3.80;;;3.60;;
20689;SDS011;10504;48.762;8.996;2023-12-20T06:42:25;3.80;;;3.60;;
20689;SDS011;10504;48.762;8.996;2023-12-20T06:44:52;4.00;;;3.80;;
20689;SDS011;10504;48.762;8.996;2023-12-20T06:47:17;4.00;;;3.80;;
20689;SDS011;10504;48.762;8.996;2023-12-20T06:49:43;3.80;;;3.60;;
20689;SDS011;10504;48.762;8.996;2023-12-20T06:52:09;3.80;;;3.60;;
20689;SDS011;10504;48.762;8.996;2023-12-20T06:54:35;4.33;;;4.13;;
20689;SDS011;10504;48.762;8.996;2023-12-20T06:57:01;3.80;;;3.60;;
20689;SDS011;10504;48.762;8.996;2023-12-20T06:59:28;3.97;;;3.77;;
20689;SDS011;10504;48.762;8.996;2023-12-20T07:01:54;4.03;;;3.83;;
20689;SDS011;10504;48.762;8.996;2023-12-20T07:04:19;3.90;;;3.70;;
20689;SDS011;10504;48.762;8.996;2023-12-20T07:06:47;4.20;;;4.00;;
20689;SDS011;10504;48.762;8.996;2023-12-20T07:09:13;4.30;;;4.10;;
20689;SDS011;10504;48.762;8.996;2023-12-20T07:11:39;4.90;;;4.60;;
20689;SDS011;10504;48.762;8.996;2023-12-20T07:14:05;4.30;;;4.10;;
20689;SDS011;10504;48.762;8.996;2023-12-20T07:16:30;4.40;;;4.10;;
20689;SDS011;10504;48.762;8.996;2023-12-20T07:18:57;4.17;;;3.97;;
20689;SDS011;10504;48.762;8.996;2023-12-20T07:21:22;4.20;;;4.00;;
20689;SDS011;10504;48.762;8.996;2023-12-20T07:23:48;3.90;;;3.70;;
20689;SDS011;10504;48.762;8.996;2023-12-20T07:26:14;3.90;;;3.70;;
20689;SDS011;10504;48.762;8.996;2023-12-20T07:28:40;4.10;;;3.90;;
20689;SDS011;10504;48.762;8.996;2023-12-20T07:31:06;4.20;;;4.00;;
20689;SDS011;10504;48.762;8.996;2023-12-20T07:33:31;4.00;;;3.80;;
20689;SDS011;10504;48.762;8.996;2023-12-20T07:35:58;4.10;;;3.90;;
20689;SDS011;10504;48.762;8.996;2023-12-20T07:38:24;3.87;;;3.67;;
20689;SDS011;10504;48.762;8.996;2023-12-20T07:40:50;4.30;;;4.10;;
20689;SDS011;10504;48.762;8.996;2023-12-20T07:43:16;4.17;;;3.97;;
20689;SDS011;10504;48.762;8.996;2023-12-20T07:45:41;3.90;;;3.70;;
20689;SDS011;10504;48.762;8.996;2023-12-20T07:48:07;4.27;;;4.03;;
20689;SDS011;10504;48.762;8.996;2023-12-20T07:50:33;3.80;;;3.60;;
20689;SDS011;10504;48.762;8.996;2023-12-20T07:52:59;4.73;;;4.43;;
20689;SDS011;10504;48.762;8.996;2023-12-20T07:55:25;4.43;;;4.13;;
20689;SDS011;10504;48.762;8.996;2023-12-20T07:57:51;4.63;;;4.23;;
20689;SDS011;10504;48.762;8.996;2023-12-20T08:00:17;4.20;;;4.00;;
20689;SDS011;10504;48.762;8.996;2023-12-20T08:02:43;4.07;;;3.87;;
20689;SDS011;10504;48.762;8.996;2023-12-20T08:05:09;4.50;;;4.20;;
20689;SDS011;10504;48.762;8.996;2023-12-20T08:07:35;4.00;;;3.80;;
20689;SDS011;10504;48.762;8.996;2023-12-20T08:10:00;4.97;;;4.67;;
20689;SDS011;10504;48.762;8.996;2023-12-20T08:12:26;4.30;;;4.10;;
20689;SDS011;10504;48.762;8.996;2023-12-20T08:14:52;4.37;;;4.17;;
20689;SDS011;10504;48.762;8.996;2023-12-20T08:17:19;4.93;;;4.60;;
20689;SDS011;10504;48.762;8.996;2023-12-20T08:19:44;6.97;;;6.10;;
20689;SDS011;10504;48.762;8.996;2023-12-20T08:22:10;5.43;;;5.03;;
20689;SDS011;10504;48.762;8.996;2023-12-20T08:24:36;4.50;;;4.30;;
20689;SDS011;10504;48.762;8.996;2023-12-20T08:27:02;4.60;;;4.30;;
20689;SDS011;10504;48.762;8.996;2023-12-20T08:29:28;4.03;;;3.83;;
20689;SDS011;10504;48.762;8.996;2023-12-20T08:31:53;4.10;;;3.90;;
20689;SDS011;10504;48.762;8.996;2023-12-20T08:34:20;4.93;;;4.53;;
20689;SDS011;10504;48.762;8.996;2023-12-20T08:36:45;4.23;;;4.03;;
20689;SDS011;10504;48.762;8.996;2023-12-20T08:39:11;4.20;;;3.90;;
20689;SDS011;10504;48.762;8.996;2023-12-20T08:41:37;3.70;;;3.50;;
20689;SDS011;10504;48.762;8.996;2023-12-20T08:44:02;6.77;;;4.77;;
20689;SDS011;10504;48.762;8.996;2023-12-20T08:46:28;5.10;;;4.70;;
20689;SDS011;10504;48.762;8.996;2023-12-20T08:48:54;3.60;;;3.40;;
20689;SDS011;10504;48.762;8.996;2023-12-20T08:51:20;4.17;;;3.87;;
20689;SDS011;10504;48.762;8.996;2023-12-20T08:53:47;3.60;;;3.40;;
20689;SDS011;10504;48.762;8.996;2023-12-20T08:56:14;4.70;;;4.40;;
20689;SDS011;10504;48.762;8.996;2023-12-20T08:58:40;3.60;;;3.40;;
20689;SDS011;10504;48.762;8.996;2023-12-20T09:01:05;7.23;;;5.40;;
20689;SDS011;10504;48.762;8.996;2023-12-20T09:03:32;3.73;;;3.53;;
20689;SDS011;10504;48.762;8.996;2023-12-20T09:05:58;4.00;;;3.80;;
20689;SDS011;10504;48.762;8.996;2023-12-20T09:08:23;4.10;;;3.83;;
20689;SDS011;10504;48.762;8.996;2023-12-20T09:10:49;3.93;;;3.73;;
20689;SDS011;10504;48.762;8.996;2023-12-20T09:13:15;4.07;;;3.87;;
20689;SDS011;10504;48.762;8.996;2023-12-20T09:15:40;4.00;;;3.80;;
20689;SDS011;10504;48.762;8.996;2023-12-20T09:18:06;4.13;;;3.83;;
20689;SDS011;10504;48.762;8.996;2023-12-20T09:20:32;3.73;;;3.53;;
20689;SDS011;10504;48.762;8.996;2023-12-20T09:22:58;4.03;;;3.83;;
20689;SDS011;10504;48.762;8.996;2023-12-20T09:25:24;3.80;;;3.60;;
20689;SDS011;10504;48.762;8.996;2023-12-20T09:27:51;3.83;;;3.63;;
20689;SDS011;10504;48.762;8.996;2023-12-20T09:30:17;3.60;;;3.40;;
20689;SDS011;10504;48.762;8.996;2023-12-20T09:32:44;4.00;;;3.80;;
20689;SDS011;10504;48.762;8.996;2023-12-20T09:35:11;3.90;;;3.70;;
20689;SDS011;10504;48.762;8.996;2023-12-20T09:37:37;3.80;;;3.60;;
20689;SDS011;10504;48.762;8.996;2023-12-20T09:40:03;4.87;;;4.53;;
20689;SDS011;10504;48.762;8.996;2023-12-20T09:42:32;3.70;;;3.50;;
20689;SDS011;10504;48.762;8.996;2023-12-20T09:45:20;4.70;;;4.40;;
20689;SDS011;10504;48.762;8.996;2023-12-20T09:47:50;3.20;;;3.00;;
20689;SDS011;10504;48.762;8.996;2023-12-20T09:50:20;3.80;;;3.60;;
20689;SDS011;10504;48.762;8.996;2023-12-20T09:52:51;3.90;;;3.70;;
20689;SDS011;10504;48.762;8.996;2023-12-20T09:55:18;4.00;;;3.80;;
20689;SDS011;10504;48.762;8.996;2023-12-20T09:57:45;6.60;;;6.00;;
20689;SDS011;10504;48.762;8.996;2023-12-20T10:00:11;4.67;;;4.37;;
20689;SDS011;10504;48.762;8.996;2023-12-20T10:02:39;4.10;;;3.90;;
20689;SDS011;10504;48.762;8.996;2023-12-20T10:05:19;4.00;;;3.80;;
20689;SDS011;10504;48.762;8.996;2023-12-20T10:07:54;4.37;;;4.17;;
20689;SDS011;10504;48.762;8.996;2023-12-20T10:10:20;4.50;;;4.30;;
20689;SDS011;10504;48.762;8.996;2023-12-20T10:15:31;4.30;;;4.10;;
20689;SDS011;10504;48.762;8.996;2023-12-20T10:18:00;4.40;;;4.20;;
20689;SDS011;10504;48.762;8.996;2023-12-20T10:20:27;5.20;;;4.83;;
20689;SDS011;10504;48.762;8.996;2023-12-20T10:22:56;4.40;;;4.20;;
20689;SDS011;10504;48.762;8.996;2023-12-20T10:25:23;4.33;;;4.13;;
20689;SDS011;10504;48.762;8.996;2023-12-20T10:27:49;4.20;;;4.00;;
20689;SDS011;10504;48.762;8.996;2023-12-20T10:30:33;4.37;;;4.17;;
20689;SDS011;10504;48.762;8.996;2023-12-20T10:32:58;4.60;;;4.30;;
20689;SDS011;10504;48.762;8.996;2023-12-20T10:35:24;4.40;;;4.10;;
20689;SDS011;10504;48.762;8.996;2023-12-20T10:37:51;4.20;;;4.00;;
20689;SDS011;10504;48.762;8.996;2023-12-20T10:40:20;4.10;;;3.90;;
20689;SDS011;10504;48.762;8.996;2023-12-20T10:42:47;4.83;;;4.43;;
20689;SDS011;10504;48.762;8.996;2023-12-20T10:45:14;4.93;;;4.63;;
20689;SDS011;10504;48.762;8.996;2023-12-20T10:47:42;5.07;;;4.77;;
20689;SDS011;10504;48.762;8.996;2023-12-20T10:50:11;4.10;;;3.90;;
20689;SDS011;10504;48.762;8.996;2023-12-20T10:52:36;4.80;;;4.50;;
20689;SDS011;10504;48.762;8.996;2023-12-20T10:55:03;4.60;;;4.30;;
20689;SDS011;10504;48.762;8.996;2023-12-20T10:57:30;4.63;;;4.33;;
20689;SDS011;10504;48.762;8.996;2023-12-20T10:59:55;4.30;;;4.07;;
20689;SDS011;10504;48.762;8.996;2023-12-20T11:02:26;4.03;;;3.83;;
20689;SDS011;10504;48.762;8.996;2023-12-20T11:04:59;3.70;;;3.50;;
20689;SDS011;10504;48.762;8.996;2023-12-20T11:07:29;4.17;;;3.97;;
20689;SDS011;10504;48.762;8.996;2023-12-20T11:10:43;4.20;;;4.00;;
20689;SDS011;10504;48.762;8.996;2023-12-20T11:12:58;3.80;;;3.60;;
20689;SDS011;10504;48.762;8.996;2023-12-20T11:15:37;4.10;;;3.90;;
20689;SDS011;10504;48.762;8.996;2023-12-20T11:18:03;3.80;;;3.60;;
20689;SDS011;10504;48.762;8.996;2023-12-20T11:20:38;3.80;;;3.60;;
20689;SDS011;10504;48.762;8.996;2023-12-20T11:23:05;3.80;;;3.60;;
20689;SDS011;10504;48.762;8.996;2023-12-20T11:26:14;3.90;;;3.70;;
20689;SDS011;10504;48.762;8.996;2023-12-20T11:28:24;3.70;;;3.50;;
20689;SDS011;10504;48.762;8.996;2023-12-20T11:30:51;5.10;;;4.73;;
20689;SDS011;10504;48.762;8.996;2023-12-20T11:33:21;3.87;;;3.67;;
20689;SDS011;10504;48.762;8.996;2023-12-20T11:35:47;3.40;;;3.20;;
20689;SDS011;10504;48.762;8.996;2023-12-20T11:38:13;3.20;;;3.00;;
20689;SDS011;10504;48.762;8.996;2023-12-20T11:40:41;3.00;;;2.90;;
20689;SDS011;10504;48.762;8.996;2023-12-20T11:43:07;3.30;;;3.10;;
20689;SDS011;10504;48.762;8.996;2023-12-20T11:45:33;3.50;;;3.30;;
20689;SDS011;10504;48.762;8.996;2023-12-20T11:48:02;3.37;;;3.17;;
20689;SDS011;10504;48.762;8.996;2023-12-20T11:50:28;3.47;;;3.27;;
20689;SDS011;10504;48.762;8.996;2023-12-20T11:52:55;3.50;;;3.30;;
20689;SDS011;10504;48.762;8.996;2023-12-20T11:55:22;4.83;;;4.43;;
20689;SDS011;10504;48.762;8.996;2023-12-20T11:57:49;3.47;;;3.27;;
20689;SDS011;10504;48.762;8.996;2023-12-20T12:00:15;3.70;;;3.50;;
20689;SDS011;10504;48.762;8.996;2023-12-20T12:02:42;3.50;;;3.30;;
20689;SDS011;10504;48.762;8.996;2023-12-20T12:05:08;3.90;;;3.70;;
20689;SDS011;10504;48.762;8.996;2023-12-20T12:07:34;3.90;;;3.70;;
20689;SDS011;10504;48.762;8.996;2023-12-20T12:10:00;4.10;;;3.90;;
20689;SDS011;10504;48.762;8.996;2023-12-20T12:12:26;3.90;;;3.70;;
20689;SDS011;10504;48.762;8.996;2023-12-20T12:14:52;4.00;;;3.80;;
20689;SDS011;10504;48.762;8.996;2023-12-20T12:17:19;4.13;;;3.90;;
20689;SDS011;10504;48.762;8.996;2023-12-20T12:19:45;4.40;;;4.10;;
20689;SDS011;10504;48.762;8.996;2023-12-20T12:22:14;3.90;;;3.70;;
20689;SDS011;10504;48.762;8.996;2023-12-20T12:27:08;3.90;;;3.70;;
20689;SDS011;10504;48.762;8.996;2023-12-20T12:29:34;3.60;;;3.40;;
20689;SDS011;10504;48.762;8.996;2023-12-20T12:32:01;5.93;;;3.63;;
20689;SDS011;10504;48.762;8.996;2023-12-20T12:34:30;3.50;;;3.30;;
20689;SDS011;10504;48.762;8.996;2023-12-20T12:36:56;4.30;;;3.97;;
20689;SDS011;10504;48.762;8.996;2023-12-20T12:39:25;3.60;;;3.40;;
20689;SDS011;10504;48.762;8.996;2023-12-20T12:41:50;4.00;;;3.80;;
20689;SDS011;10504;48.762;8.996;2023-12-20T12:44:16;4.43;;;4.13;;
20689;SDS011;10504;48.762;8.996;2023-12-20T12:46:43;3.90;;;3.60;;
20689;SDS011;10504;48.762;8.996;2023-12-20T12:49:09;3.37;;;3.17;;
20689;SDS011;10504;48.762;8.996;2023-12-20T12:51:35;3.30;;;3.10;;
20689;SDS011;10504;48.762;8.996;2023-12-20T12:54:00;3.57;;;3.37;;
20689;SDS011;10504;48.762;8.996;2023-12-20T12:56:26;3.20;;;3.00;;
20689;SDS011;10504;48.762;8.996;2023-12-20T12:58:52;3.43;;;3.23;;
20689;SDS011;10504;48.762;8.996;2023-12-20T13:01:17;3.73;;;3.53;;
20689;SDS011;10504;48.762;8.996;2023-12-20T13:03:43;3.43;;;3.23;;
20689;SDS011;10504;48.762;8.996;2023-12-20T13:06:08;3.80;;;3.57;;
20689;SDS011;10504;48.762;8.996;2023-12-20T13:08:34;4.13;;;3.83;;
20689;SDS011;10504;48.762;8.996;2023-12-20T13:11:00;4.70;;;4.30;;
20689;SDS011;10504;48.762;8.996;2023-12-20T13:13:28;3.33;;;3.13;;
20689;SDS011;10504;48.762;8.996;2023-12-20T13:15:57;3.70;;;3.50;;
20689;SDS011;10504;48.762;8.996;2023-12-20T13:18:23;3.87;;;3.67;;
20689;SDS011;10504;48.762;8.996;2023-12-20T13:20:49;3.30;;;3.10;;
20689;SDS011;10504;48.762;8.996;2023-12-20T13:23:14;3.30;;;3.10;;
20689;SDS011;10504;48.762;8.996;2023-12-20T13:25:43;3.83;;;3.63;;
20689;SDS011;10504;48.762;8.996;2023-12-20T13:28:12;4.43;;;4.13;;
20689;SDS011;10504;48.762;8.996;2023-12-20T13:30:38;4.33;;;3.93;;
20689;SDS011;10504;48.762;8.996;2023-12-20T13:33:04;3.80;;;3.60;;
20689;SDS011;10504;48.762;8.996;2023-12-20T13:35:31;4.73;;;4.03;;
20689;SDS011;10504;48.762;8.996;2023-12-20T13:37:57;3.43;;;3.23;;
20689;SDS011;10504;48.762;8.996;2023-12-20T13:40:23;3.27;;;3.07;;
20689;SDS011;10504;48.762;8.996;2023-12-20T13:42:49;3.40;;;3.20;;
20689;SDS011;10504;48.762;8.996;2023-12-20T13:45:14;3.67;;;3.47;;
20689;SDS011;10504;48.762;8.996;2023-12-20T13:47:40;3.53;;;3.33;;
20689;SDS011;10504;48.762;8.996;2023-12-20T13:50:06;6.40;;;4.07;;
20689;SDS011;10504;48.762;8.996;2023-12-20T13:52:32;3.33;;;3.13;;
20689;SDS011;10504;48.762;8.996;2023-12-20T13:54:57;3.30;;;3.10;;
20689;SDS011;10504;48.762;8.996;2023-12-20T13:57:23;3.30;;;3.10;;
20689;SDS011;10504;48.762;8.996;2023-12-20T13:59:48;2.90;;;2.80;;
20689;SDS011;10504;48.762;8.996;2023-12-20T14:02:14;2.90;;;2.80;;
20689;SDS011;10504;48.762;8.996;2023-12-20T14:04:41;2.90;;;2.80;;
20689;SDS011;10504;48.762;8.996;2023-12-20T14:07:07;3.47;;;3.20;;
20689;SDS011;10504;48.762;8.996;2023-12-20T14:09:32;2.90;;;2.80;;
20689;SDS011;10504;48.762;8.996;2023-12-20T14:11:59;2.80;;;2.70;;
20689;SDS011;10504;48.762;8.996;2023-12-20T14:14:24;4.30;;;4.00;;
20689;SDS011;10504;48.762;8.996;2023-12-20T14:16:50;3.00;;;2.90;;
20689;SDS011;10504;48.762;8.996;2023-12-20T14:19:16;3.03;;;2.93;;
20689;SDS011;10504;48.762;8.996;2023-12-20T14:21:42;2.90;;;2.80;;
20689;SDS011;10504;48.762;8.996;2023-12-20T14:24:10;2.97;;;2.87;;
20689;SDS011;10504;48.762;8.996;2023-12-20T14:26:39;3.00;;;2.90;;
20689;SDS011;10504;48.762;8.996;2023-12-20T14:29:05;3.37;;;3.17;;
20689;SDS011;10504;48.762;8.996;2023-12-20T14:31:32;3.00;;;2.90;;
20689;SDS011;10504;48.762;8.996;2023-12-20T14:33:58;2.93;;;2.83;;
20689;SDS011;10504;48.762;8.996;2023-12-20T14:36:24;2.80;;;2.70;;
20689;SDS011;10504;48.762;8.996;2023-12-20T14:38:50;2.80;;;2.70;;
20689;SDS011;10504;48.762;8.996;2023-12-20T14:41:16;2.60;;;2.50;;
20689;SDS011;10504;48.762;8.996;2023-12-20T14:43:43;2.90;;;2.80;;
20689;SDS011;10504;48.762;8.996;2023-12-20T14:46:09;2.90;;;2.80;;
20689;SDS011;10504;48.762;8.996;2023-12-20T14:48:35;3.20;;;3.00;;